Airway Heights, Washington
Current Conditions -  °F | °C
As of 4:10 AM on Tuesday 27 Jan 2015 (Local Time) from KGEG Reporting Station
Moderate Fog Moderate Fog  
Wind Chill: 25°   Ceiling: 100
Heat Index: 30°   Visibility: 0.5mi
Dew Point: 29°   Wind: 5mph
Humidity: 96%   Direction: 30°NNE
Pressure: 29.98"   Gusts: NA
Location:  47.64°N, 117.59°W
Report Text: KGEG 271210Z 03004KT 1/2SM R03/1400V1800FT FZFG VV001 M01/M02 A2998 RMK AO2 TWR VIS 4+ I1000 T10111017
Loading
Personal Weather Stations






























Interactive Weather Map New forecast layout! Learn more

10-Day Weather Forecast

Advertisements
Track Severe Weather on mobile